createdAt,value
2023-02-11T00:01:26.377Z,102299.50
2023-02-11T00:03:53.522Z,102263.78
2023-02-11T00:06:20.453Z,102340.47
2023-02-11T00:08:49.684Z,102331.25
2023-02-11T00:11:18.634Z,102306.84
2023-02-11T00:13:46.607Z,102323.84
2023-02-11T00:16:19.687Z,102307.84
2023-02-11T00:18:53.150Z,102199.78
2023-02-11T00:21:26.311Z,102221.00
2023-02-11T00:23:57.321Z,102184.44
2023-02-11T00:26:31.744Z,102320.63
2023-02-11T00:29:01.625Z,102318.34
2023-02-11T00:31:34.057Z,102191.69
2023-02-11T00:34:08.673Z,102310.88
2023-02-11T00:36:38.469Z,102189.91
2023-02-11T00:39:25.328Z,102309.53
2023-02-11T00:42:01.565Z,102250.91
2023-02-11T00:44:30.828Z,102313.19
2023-02-11T00:47:05.315Z,102171.28
2023-02-11T00:49:34.474Z,102138.88
2023-02-11T00:52:01.281Z,102268.72
2023-02-11T00:54:30.392Z,102221.84
2023-02-11T00:56:57.103Z,102279.84
2023-02-11T00:59:27.652Z,102214.19
2023-02-11T01:02:04.703Z,102202.59
2023-02-11T01:04:34.250Z,102293.31
2023-02-11T01:07:01.061Z,102181.22
2023-02-11T01:09:27.854Z,102220.69
2023-02-11T01:11:57.130Z,102251.88
2023-02-11T01:14:23.928Z,102178.84
2023-02-11T01:16:53.902Z,102264.53
2023-02-11T01:19:21.370Z,102190.16
2023-02-11T01:21:50.480Z,102147.09
2023-02-11T01:24:19.506Z,102237.72
2023-02-11T01:26:48.817Z,102165.91
2023-02-11T01:29:17.948Z,102207.91
2023-02-11T01:31:47.137Z,102254.63
2023-02-11T01:34:14.660Z,102111.13
2023-02-11T01:36:41.897Z,102151.59
2023-02-11T01:39:09.007Z,102136.72
2023-02-11T01:41:35.846Z,102170.88
2023-02-11T01:44:33.464Z,102190.16
2023-02-11T01:47:06.130Z,102159.41
2023-02-11T01:49:36.876Z,102179.56
2023-02-11T01:52:10.477Z,102258.03
2023-02-11T01:55:00.445Z,102187.38
2023-02-11T01:57:32.038Z,102138.13
2023-02-11T02:00:17.310Z,102137.34
2023-02-11T02:02:44.437Z,102245.81
2023-02-11T02:05:40.335Z,102160.88
2023-02-11T02:08:21.634Z,102119.75
2023-02-11T02:10:56.347Z,102182.13
2023-02-11T02:13:25.068Z,102246.69
2023-02-11T02:15:59.919Z,102253.91
2023-02-11T02:18:51.873Z,102260.38
2023-02-11T02:21:55.670Z,102251.22
2023-02-11T02:24:41.223Z,102261.72
2023-02-11T02:27:36.449Z,102266.25
2023-02-11T02:30:28.231Z,102248.34
2023-02-11T02:33:07.899Z,102248.19
2023-02-11T02:35:55.714Z,102234.34
2023-02-11T02:38:31.936Z,102199.56
2023-02-11T02:41:20.047Z,102097.59
2023-02-11T02:43:53.009Z,102243.19
2023-02-11T02:46:29.999Z,102138.66
2023-02-11T02:49:00.022Z,102150.84
2023-02-11T02:51:51.537Z,102234.56
2023-02-11T02:54:21.389Z,102233.81
2023-02-11T02:57:05.370Z,102123.41
2023-02-11T02:59:52.807Z,102226.72
2023-02-11T03:02:35.695Z,102097.03
2023-02-11T03:05:17.524Z,102226.00
2023-02-11T03:07:51.649Z,102129.09
2023-02-11T03:10:27.918Z,102068.41
2023-02-11T03:12:57.662Z,102235.72
2023-02-11T03:15:28.571Z,102066.56
2023-02-11T03:18:00.744Z,102107.69
2023-02-11T03:20:27.406Z,102212.66
2023-02-11T03:23:02.596Z,102082.06
2023-02-11T03:25:37.532Z,102086.16
2023-02-11T03:28:25.183Z,102122.72
2023-02-11T03:31:01.268Z,102206.47
2023-02-11T03:33:45.976Z,102211.34
2023-02-11T03:36:20.248Z,102212.38
2023-02-11T03:38:52.993Z,102070.50
2023-02-11T03:41:22.249Z,102192.91
2023-02-11T03:43:56.524Z,102188.53
2023-02-11T03:46:34.702Z,102013.09
2023-02-11T03:49:15.800Z,102124.84
2023-02-11T03:51:43.333Z,102015.16
2023-02-11T03:54:17.172Z,102055.66
2023-02-11T03:56:51.668Z,102166.75
2023-02-11T03:59:18.657Z,102172.47
2023-02-11T04:01:45.452Z,102064.94
2023-02-11T04:04:12.249Z,102089.28
2023-02-11T04:06:41.594Z,102015.44
2023-02-11T04:09:10.832Z,102028.13
2023-02-11T04:11:37.574Z,102080.81
2023-02-11T04:14:06.782Z,102133.16
2023-02-11T04:16:33.600Z,102138.34
2023-02-11T04:19:02.746Z,101972.69
2023-02-11T04:21:31.990Z,102051.53
2023-02-11T04:24:06.782Z,102085.75
2023-02-11T04:26:36.599Z,102028.91
2023-02-11T04:29:03.551Z,101991.66
2023-02-11T04:31:35.115Z,101953.78
2023-02-11T04:34:05.930Z,102036.34
2023-02-11T04:36:32.816Z,102038.59
2023-02-11T04:39:02.173Z,102014.53
2023-02-11T04:41:31.048Z,102129.78
2023-02-11T04:44:00.387Z,102011.16
2023-02-11T04:46:30.109Z,102017.78
2023-02-11T04:49:05.051Z,102135.22
2023-02-11T04:51:34.423Z,102046.72
2023-02-11T04:54:01.224Z,102081.72
2023-02-11T04:56:28.065Z,102043.31
2023-02-11T04:58:57.006Z,102135.41
2023-02-11T05:01:26.488Z,101931.44
2023-02-11T05:03:53.432Z,102054.00
2023-02-11T05:06:22.675Z,102064.63
2023-02-11T05:08:54.542Z,102097.56
2023-02-11T05:11:26.812Z,102065.59
2023-02-11T05:14:01.585Z,102116.59
2023-02-11T05:16:28.576Z,101916.09
2023-02-11T05:19:03.236Z,102023.50
2023-02-11T05:21:32.564Z,101870.34
2023-02-11T05:24:04.384Z,102110.78
2023-02-11T05:26:36.564Z,102145.84
2023-02-11T05:29:08.477Z,102088.75
2023-02-11T05:31:40.494Z,102042.56
2023-02-11T05:34:13.118Z,102034.13
2023-02-11T05:36:44.976Z,101911.84
2023-02-11T05:39:12.273Z,101926.28
2023-02-11T05:41:39.107Z,102096.41
2023-02-11T05:44:08.221Z,102120.22
2023-02-11T05:46:35.038Z,102031.81
2023-02-11T05:49:08.969Z,102104.50
2023-02-11T05:51:38.150Z,101980.59
2023-02-11T05:54:07.998Z,102126.66
2023-02-11T05:56:38.059Z,101976.63
2023-02-11T05:59:12.385Z,102039.66
2023-02-11T06:01:39.267Z,102053.81
2023-02-11T06:04:08.981Z,102133.94
2023-02-11T06:06:45.421Z,102062.00
2023-02-11T06:09:12.225Z,102042.16
2023-02-11T06:11:48.412Z,102045.81
2023-02-11T06:14:20.085Z,102072.91
2023-02-11T06:16:52.373Z,102102.97
2023-02-11T06:19:21.598Z,102033.50
2023-02-11T06:21:48.464Z,102103.34
2023-02-11T06:24:28.696Z,102065.00
2023-02-11T06:27:05.290Z,102046.28
2023-02-11T06:29:35.467Z,102108.63
2023-02-11T06:32:08.618Z,102078.22
2023-02-11T06:34:38.829Z,102112.75
2023-02-11T06:37:08.388Z,101965.44
2023-02-11T06:39:35.312Z,102021.69
2023-02-11T06:42:06.985Z,102058.81
2023-02-11T06:44:34.682Z,102042.63
2023-02-11T06:47:04.273Z,102094.94
2023-02-11T06:49:34.034Z,102057.50
2023-02-11T06:52:00.987Z,102054.22
2023-02-11T06:54:32.116Z,102023.28
2023-02-11T06:56:58.845Z,102000.31
2023-02-11T06:59:28.270Z,102085.03
2023-02-11T07:01:58.186Z,101946.84
2023-02-11T07:04:29.662Z,102095.91
2023-02-11T07:06:59.501Z,102006.56
2023-02-11T07:09:33.487Z,102042.50
2023-02-11T07:12:02.574Z,102070.00
2023-02-11T07:14:34.151Z,101974.53
2023-02-11T07:17:04.128Z,102010.91
2023-02-11T07:19:33.288Z,102016.50
2023-02-11T07:22:02.185Z,102056.91
2023-02-11T07:24:30.216Z,101995.09
2023-02-11T07:26:57.111Z,101916.53
2023-02-11T07:29:34.652Z,102041.47
2023-02-11T07:32:03.827Z,102079.47
2023-02-11T07:34:35.804Z,102066.31
2023-02-11T07:37:07.089Z,102085.91
2023-02-11T07:39:34.226Z,101992.00
2023-02-11T07:42:00.985Z,102026.69
2023-02-11T07:44:27.811Z,102023.66
2023-02-11T07:46:58.609Z,101792.25
2023-02-11T07:49:27.854Z,102049.03
2023-02-11T07:51:59.731Z,102013.78
2023-02-11T07:54:28.771Z,101965.50
2023-02-11T07:56:55.580Z,101946.41
2023-02-11T07:59:25.161Z,101950.19
2023-02-11T08:01:55.022Z,102055.91
2023-02-11T08:04:23.174Z,101985.72
2023-02-11T08:06:52.920Z,101941.66
2023-02-11T08:09:24.864Z,101945.44
2023-02-11T08:11:56.645Z,101939.06
2023-02-11T08:14:28.684Z,101945.03
2023-02-11T08:17:01.082Z,102001.50
2023-02-11T08:19:28.159Z,102002.16
2023-02-11T08:21:58.571Z,102043.09
2023-02-11T08:24:28.337Z,101951.91
2023-02-11T08:26:56.737Z,102042.47
2023-02-11T08:29:30.912Z,101959.28
2023-02-11T08:31:57.984Z,101981.22
2023-02-11T08:34:26.920Z,101907.91
2023-02-11T08:36:54.221Z,101874.84
2023-02-11T08:39:24.518Z,101968.72
2023-02-11T08:41:54.104Z,101999.22
2023-02-11T08:44:21.111Z,102053.88
2023-02-11T08:46:48.362Z,101972.13
2023-02-11T08:49:15.692Z,101965.38
2023-02-11T08:51:45.897Z,102048.94
2023-02-11T08:54:14.173Z,102022.19
2023-02-11T08:56:47.608Z,102003.41
2023-02-11T08:59:16.081Z,101934.84
2023-02-11T09:01:47.847Z,102046.28
2023-02-11T09:04:14.996Z,102042.13
2023-02-11T09:06:42.184Z,102045.00
2023-02-11T09:09:13.529Z,101926.63
2023-02-11T09:11:41.540Z,101971.44
2023-02-11T09:14:20.544Z,102009.69
2023-02-11T09:16:48.324Z,101988.88
2023-02-11T09:19:15.655Z,101996.75
2023-02-11T09:21:45.476Z,101942.00
2023-02-11T09:24:12.335Z,102020.19
2023-02-11T09:26:43.395Z,101942.06
2023-02-11T09:29:10.446Z,101970.16
2023-02-11T09:31:37.591Z,101871.56
2023-02-11T09:34:09.846Z,101872.69
2023-02-11T09:36:43.842Z,101955.50
2023-02-11T09:39:18.273Z,101732.69
2023-02-11T09:41:48.104Z,101993.78
2023-02-11T09:44:23.688Z,101970.06
2023-02-11T09:47:01.196Z,101910.47
2023-02-11T09:49:39.418Z,101924.59
2023-02-11T09:52:22.655Z,101993.59
2023-02-11T09:54:58.460Z,101929.56
2023-02-11T09:57:36.836Z,101948.00
2023-02-11T10:00:20.043Z,101931.84
2023-02-11T10:02:46.749Z,101990.13
2023-02-11T10:05:17.804Z,101881.50
2023-02-11T10:07:44.757Z,101978.63
2023-02-11T10:10:30.026Z,101969.03
2023-02-11T10:13:21.897Z,101978.81
2023-02-11T10:16:16.183Z,101971.88
2023-02-11T10:19:03.129Z,101964.28
2023-02-11T10:21:34.403Z,101957.00
2023-02-11T10:24:05.745Z,101844.78
2023-02-11T10:26:36.990Z,101831.38
2023-02-11T10:29:25.262Z,101939.31
2023-02-11T10:31:52.383Z,101925.19
2023-02-11T10:34:19.369Z,101907.91
2023-02-11T10:36:48.772Z,101941.75
2023-02-11T10:39:16.984Z,101943.53
2023-02-11T10:41:48.582Z,101809.81
2023-02-11T10:44:31.017Z,101876.88
2023-02-11T10:47:00.108Z,101912.69
2023-02-11T10:49:40.465Z,101913.66
2023-02-11T10:52:30.707Z,101708.88
2023-02-11T10:55:29.135Z,101531.03
2023-02-11T10:58:33.499Z,101147.97
2023-02-11T11:01:03.750Z,101900.81
2023-02-11T11:03:43.265Z,101836.41
2023-02-11T11:06:10.191Z,101864.22
2023-02-11T11:08:52.213Z,101857.44
2023-02-11T11:11:29.619Z,101729.03
2023-02-11T11:14:03.360Z,101782.75
2023-02-11T11:16:37.058Z,101879.00
2023-02-11T11:19:09.743Z,101882.19
2023-02-11T11:21:42.522Z,101886.34
2023-02-11T11:24:22.212Z,101838.06
2023-02-11T11:26:56.993Z,101799.81
2023-02-11T11:29:46.007Z,101871.56
2023-02-11T11:32:18.911Z,101842.28
2023-02-11T11:35:17.854Z,101781.19
2023-02-11T11:37:47.103Z,101836.72
2023-02-11T11:40:16.741Z,101845.38
2023-02-11T11:42:47.258Z,101804.72
2023-02-11T11:45:19.939Z,101827.88
2023-02-11T11:47:53.316Z,101822.72
2023-02-11T11:50:35.597Z,101762.06
2023-02-11T11:53:26.508Z,101826.66
2023-02-11T11:56:00.155Z,101655.06
2023-02-11T11:58:32.852Z,101824.59
2023-02-11T12:01:02.308Z,101818.69
2023-02-11T12:03:34.441Z,101825.13
2023-02-11T12:06:41.307Z,101802.66
2023-02-11T12:09:32.463Z,101787.78
2023-02-11T12:12:24.092Z,101648.19
2023-02-11T12:15:12.174Z,101783.22
2023-02-11T12:17:38.940Z,101772.16
2023-02-11T12:20:18.338Z,101702.53
2023-02-11T12:22:48.782Z,101752.09
2023-02-11T12:25:38.876Z,101725.56
2023-02-11T12:28:27.555Z,101752.50
2023-02-11T12:31:12.078Z,101701.41
2023-02-11T12:33:59.965Z,101747.75
2023-02-11T12:37:07.995Z,101751.75
2023-02-11T12:40:00.589Z,101747.84
2023-02-11T12:42:52.036Z,101741.84
2023-02-11T12:45:40.001Z,101706.31
2023-02-11T12:48:35.629Z,101737.59
2023-02-11T12:51:02.605Z,101742.88
2023-02-11T12:53:32.825Z,101734.41
2023-02-11T12:56:22.994Z,101652.28
2023-02-11T12:58:53.136Z,101616.28
2023-02-11T13:01:41.014Z,101443.78
2023-02-11T13:04:22.072Z,101720.03
2023-02-11T13:06:52.474Z,101609.31
2023-02-11T13:09:33.150Z,101630.53
2023-02-11T13:12:23.031Z,101704.41
2023-02-11T13:14:52.944Z,101675.66
2023-02-11T13:17:50.247Z,101589.31
2023-02-11T13:20:25.903Z,101499.47
2023-02-11T13:23:24.274Z,101680.59
2023-02-11T13:25:57.479Z,101610.72
2023-02-11T13:28:27.280Z,101672.16
2023-02-11T13:31:03.235Z,101546.53
2023-02-11T13:33:43.155Z,101595.72
2023-02-11T13:36:09.949Z,101676.94
2023-02-11T13:38:40.066Z,101633.97
2023-02-11T13:41:35.804Z,101620.25
2023-02-11T13:44:08.597Z,101670.94
2023-02-11T13:46:54.928Z,101496.97
2023-02-11T13:49:25.912Z,101650.50
2023-02-11T13:52:00.484Z,101525.19
2023-02-11T13:54:31.889Z,101665.72
2023-02-11T13:57:19.677Z,101674.75
2023-02-11T13:59:58.168Z,101682.50
2023-02-11T14:02:49.497Z,101683.41
2023-02-11T14:05:50.518Z,101689.56
2023-02-11T14:08:45.662Z,101567.00
2023-02-11T14:11:25.306Z,101665.78
2023-02-11T14:13:55.018Z,101662.88
2023-02-11T14:16:37.302Z,101658.25
2023-02-11T14:19:06.787Z,101630.28
2023-02-11T14:21:36.973Z,101669.19
2023-02-11T14:24:07.424Z,101669.81
2023-02-11T14:26:56.958Z,101702.19
2023-02-11T14:29:34.210Z,101605.09
2023-02-11T14:32:23.661Z,101677.94
2023-02-11T14:35:25.954Z,101694.88
2023-02-11T14:38:14.029Z,101647.63
2023-02-11T14:40:42.403Z,101701.72
2023-02-11T14:43:36.384Z,101520.41
2023-02-11T14:46:03.940Z,101698.19
2023-02-11T14:48:40.726Z,101641.97
2023-02-11T14:51:10.186Z,101571.97
2023-02-11T14:53:37.086Z,101679.25
2023-02-11T14:56:04.091Z,101628.91
2023-02-11T14:58:32.689Z,101627.75
2023-02-11T15:01:23.121Z,101555.25
2023-02-11T15:03:50.166Z,101637.00
2023-02-11T15:06:45.037Z,101657.59
2023-02-11T15:09:19.824Z,101657.28
2023-02-11T15:11:49.792Z,101591.25
2023-02-11T15:14:29.468Z,101540.09
2023-02-11T15:17:01.701Z,101592.94
2023-02-11T15:19:34.237Z,101638.16
2023-02-11T15:22:08.532Z,101581.09
2023-02-11T15:24:35.736Z,101372.69
2023-02-11T15:27:08.650Z,101648.88
2023-02-11T15:29:40.090Z,101563.06
2023-02-11T15:32:10.044Z,101642.97
2023-02-11T15:34:37.266Z,101562.53
2023-02-11T15:37:09.335Z,101546.88
2023-02-11T15:39:44.174Z,101555.56
2023-02-11T15:42:24.299Z,101617.34
2023-02-11T15:45:16.541Z,101465.19
2023-02-11T15:47:54.314Z,101625.75
2023-02-11T15:50:21.224Z,101613.03
2023-02-11T15:52:50.485Z,101495.69
2023-02-11T15:55:18.025Z,101623.72
2023-02-11T15:57:54.061Z,101622.38
2023-02-11T16:00:24.801Z,101513.88
2023-02-11T16:02:52.068Z,101615.47
2023-02-11T16:05:31.864Z,101627.69
2023-02-11T16:08:24.570Z,101400.44
2023-02-11T16:11:03.520Z,101521.97
2023-02-11T16:13:38.436Z,101511.31
2023-02-11T16:16:19.938Z,101584.34
2023-02-11T16:19:04.380Z,101599.63
2023-02-11T16:21:39.309Z,101590.88
2023-02-11T16:24:15.850Z,101554.59
2023-02-11T16:26:48.039Z,101593.09
2023-02-11T16:29:24.775Z,101412.81
2023-02-11T16:31:53.564Z,101595.56
2023-02-11T16:34:24.556Z,101593.34
2023-02-11T16:36:52.227Z,101593.81
2023-02-11T16:39:22.684Z,101462.66
2023-02-11T16:41:56.240Z,101437.59
2023-02-11T16:44:25.571Z,101458.25
2023-02-11T16:46:56.075Z,101401.81
2023-02-11T16:49:25.840Z,101482.22
2023-02-11T16:52:01.245Z,101482.03
2023-02-11T16:54:29.257Z,101557.75
2023-02-11T16:57:02.138Z,101519.53
2023-02-11T16:59:28.971Z,101499.56
2023-02-11T17:01:55.773Z,101465.13
2023-02-11T17:04:27.814Z,101496.56
2023-02-11T17:06:58.690Z,101456.84
2023-02-11T17:09:30.484Z,101578.13
2023-02-11T17:11:57.555Z,101549.97
2023-02-11T17:14:26.592Z,101596.75
2023-02-11T17:16:59.145Z,101513.13
2023-02-11T17:19:30.794Z,101532.59
2023-02-11T17:22:00.492Z,101403.31
2023-02-11T17:24:29.565Z,101574.31
2023-02-11T17:26:58.622Z,101555.75
2023-02-11T17:29:27.908Z,101543.97
2023-02-11T17:31:54.778Z,101595.84
2023-02-11T17:34:22.708Z,101429.19
2023-02-11T17:36:50.153Z,101574.16
2023-02-11T17:39:22.065Z,101490.16
2023-02-11T17:41:53.597Z,101439.25
2023-02-11T17:44:25.017Z,101553.94
2023-02-11T17:46:54.140Z,101398.47
2023-02-11T17:49:21.032Z,101543.03
2023-02-11T17:51:52.652Z,101511.38
2023-02-11T17:54:19.830Z,101539.63
2023-02-11T17:56:50.760Z,101598.94
2023-02-11T17:59:20.480Z,101485.69
2023-02-11T18:01:49.464Z,101390.66
2023-02-11T18:04:17.994Z,101580.03
2023-02-11T18:06:45.040Z,101579.03
2023-02-11T18:09:14.780Z,101438.59
2023-02-11T18:11:44.217Z,101480.31
2023-02-11T18:14:10.838Z,101563.19
2023-02-11T18:16:39.469Z,101566.88
2023-02-11T18:19:08.898Z,101483.00
2023-02-11T18:21:35.996Z,101558.41
2023-02-11T18:24:06.972Z,101550.47
2023-02-11T18:26:34.660Z,101560.41
2023-02-11T18:29:01.780Z,101467.91
2023-02-11T18:31:36.116Z,101414.84
2023-02-11T18:34:04.686Z,101505.16
2023-02-11T18:36:31.602Z,101537.53
2023-02-11T18:39:00.127Z,101455.38
2023-02-11T18:41:29.860Z,101573.72
2023-02-11T18:43:58.836Z,101467.75
2023-02-11T18:46:26.116Z,101429.09
2023-02-11T18:48:56.265Z,101465.56
2023-02-11T18:51:25.999Z,101420.66
2023-02-11T18:53:53.095Z,101561.91
2023-02-11T18:56:24.094Z,101563.00
2023-02-11T18:58:56.669Z,101446.59
2023-02-11T19:01:27.361Z,101568.97
2023-02-11T19:03:58.524Z,101464.88
2023-02-11T19:06:27.382Z,101575.94
2023-02-11T19:09:00.124Z,101512.78
2023-02-11T19:11:47.105Z,101562.53
2023-02-11T19:14:15.438Z,101407.53
2023-02-11T19:16:43.968Z,101404.41
2023-02-11T19:19:14.032Z,101572.28
2023-02-11T19:21:43.748Z,101558.97
2023-02-11T19:24:11.381Z,101571.97
2023-02-11T19:26:40.423Z,101557.50
2023-02-11T19:29:09.850Z,101584.72
2023-02-11T19:31:36.610Z,101589.41
2023-02-11T19:34:07.487Z,101442.19
2023-02-11T19:36:36.880Z,101435.84
2023-02-11T19:39:05.478Z,101571.56
2023-02-11T19:41:34.069Z,101402.63
2023-02-11T19:44:01.575Z,101496.06
2023-02-11T19:46:33.644Z,101427.53
2023-02-11T19:49:03.726Z,101447.09
2023-02-11T19:51:31.144Z,101591.22
2023-02-11T19:54:00.848Z,101577.91
2023-02-11T19:56:29.924Z,101528.19
2023-02-11T19:58:57.124Z,101457.97
2023-02-11T20:01:28.739Z,101473.88
2023-02-11T20:03:58.015Z,101570.59
2023-02-11T20:06:28.572Z,101560.47
2023-02-11T20:08:58.825Z,101489.06
2023-02-11T20:11:28.216Z,101552.97
2023-02-11T20:13:55.347Z,101490.78
2023-02-11T20:16:44.688Z,101542.84
2023-02-11T20:19:20.461Z,101541.75
2023-02-11T20:21:51.062Z,101532.84
2023-02-11T20:24:19.210Z,101559.88
2023-02-11T20:26:49.408Z,101484.66
2023-02-11T20:29:17.462Z,101555.25
2023-02-11T20:31:44.461Z,101413.22
2023-02-11T20:34:12.287Z,101452.56
2023-02-11T20:36:51.838Z,101485.81
2023-02-11T20:39:22.360Z,101488.63
2023-02-11T20:41:50.048Z,101554.41
2023-02-11T20:44:21.844Z,101554.75
2023-02-11T20:46:49.313Z,101424.78
2023-02-11T20:49:22.061Z,101389.66
2023-02-11T20:51:53.329Z,101479.41
2023-02-11T20:54:21.537Z,101546.47
2023-02-11T20:56:51.223Z,101456.16
2023-02-11T20:59:19.260Z,101416.06
2023-02-11T21:01:48.711Z,101472.75
2023-02-11T21:04:16.803Z,101535.03
2023-02-11T21:06:48.199Z,101534.16
2023-02-11T21:09:20.112Z,101504.66
2023-02-11T21:11:47.604Z,101525.41
2023-02-11T21:14:15.474Z,101528.31
2023-02-11T21:16:44.365Z,101453.00
2023-02-11T21:19:11.361Z,101467.50
2023-02-11T21:21:39.093Z,101490.50
2023-02-11T21:24:07.728Z,101551.63
2023-02-11T21:26:35.720Z,101411.38
2023-02-11T21:29:08.060Z,101550.31
2023-02-11T21:31:36.173Z,101554.31
2023-02-11T21:34:03.830Z,101556.72
2023-02-11T21:36:30.836Z,101439.34
2023-02-11T21:39:01.748Z,101363.31
2023-02-11T21:41:28.851Z,101410.63
2023-02-11T21:43:57.798Z,101432.63
2023-02-11T21:46:27.401Z,101459.69
2023-02-11T21:49:00.458Z,101538.81
2023-02-11T21:51:27.612Z,101445.34
2023-02-11T21:54:01.156Z,101527.91
2023-02-11T21:56:32.515Z,101527.69
2023-02-11T21:58:59.875Z,101406.31
2023-02-11T22:01:29.308Z,101534.31
2023-02-11T22:03:56.785Z,101462.81
2023-02-11T22:06:26.373Z,101456.78
2023-02-11T22:08:54.356Z,101530.72
2023-02-11T22:11:21.304Z,101434.59
2023-02-11T22:13:48.144Z,101479.19
2023-02-11T22:16:19.678Z,101513.19
2023-02-11T22:18:46.605Z,101510.81
2023-02-11T22:21:19.696Z,101513.66
2023-02-11T22:23:49.529Z,101401.28
2023-02-11T22:26:19.093Z,101515.78
2023-02-11T22:28:49.999Z,101554.44
2023-02-11T22:31:23.059Z,101562.25
2023-02-11T22:33:52.571Z,101470.38
2023-02-11T22:36:26.116Z,101559.03
2023-02-11T22:38:55.754Z,101431.59
2023-02-11T22:41:25.783Z,101566.84
2023-02-11T22:43:54.701Z,101501.47
2023-02-11T22:46:21.880Z,101425.50
2023-02-11T22:48:49.118Z,101371.25
2023-02-11T22:51:19.523Z,101560.56
2023-02-11T22:53:59.805Z,101418.13
2023-02-11T22:56:27.872Z,101506.38
2023-02-11T22:59:00.377Z,101531.53
2023-02-11T23:01:33.048Z,101447.09
2023-02-11T23:04:04.540Z,101498.06
2023-02-11T23:06:31.617Z,101473.75
2023-02-11T23:08:58.441Z,101483.38
2023-02-11T23:11:28.142Z,101482.50
2023-02-11T23:13:55.413Z,101440.38
2023-02-11T23:16:32.987Z,101594.34
2023-02-11T23:19:03.532Z,101581.91
2023-02-11T23:21:36.047Z,101433.72
2023-02-11T23:24:08.953Z,101580.53
2023-02-11T23:26:43.911Z,101535.66
2023-02-11T23:29:14.007Z,101581.09
2023-02-11T23:31:44.134Z,101585.00
2023-02-11T23:34:11.773Z,101572.69
2023-02-11T23:36:39.042Z,101472.31
2023-02-11T23:39:13.562Z,101563.91
2023-02-11T23:41:42.512Z,101508.13
2023-02-11T23:44:12.127Z,101518.84
2023-02-11T23:46:42.113Z,101521.44
2023-02-11T23:49:08.997Z,101464.44
2023-02-11T23:51:35.765Z,101468.81
2023-02-11T23:54:03.329Z,101449.59
2023-02-11T23:56:30.623Z,101466.16
2023-02-11T23:58:59.392Z,101467.31
